sensor_id;sensor_type;location;lat;lon;timestamp;P1;P2;P0
77515;PMS5003;66627;29.424;-98.496;2023-01-10T00:03:23;12;12;
77515;PMS5003;66627;29.424;-98.496;2023-01-10T00:05:48;13;13;
77515;PMS5003;66627;29.424;-98.496;2023-01-10T00:08:14;12;12;
77515;PMS5003;66627;29.424;-98.496;2023-01-10T00:10:39;8;8;
77515;PMS5003;66627;29.424;-98.496;2023-01-10T00:13:04;11;10;
77515;PMS5003;66627;29.424;-98.496;2023-01-10T00:15:30;12;10;
77515;PMS5003;66627;29.424;-98.496;2023-01-10T00:17:54;10;10;
77515;PMS5003;66627;29.424;-98.496;2023-01-10T00:20:19;12;11;
77515;PMS5003;66627;29.424;-98.496;2023-01-10T00:22:45;10;10;
77515;PMS5003;66627;29.424;-98.496;2023-01-10T00:25:10;13;13;
77515;PMS5003;66627;29.424;-98.496;2023-01-10T00:27:35;10;8;
77515;PMS5003;66627;29.424;-98.496;2023-01-10T00:30:00;9;9;
77515;PMS5003;66627;29.424;-98.496;2023-01-10T00:32:26;8;8;
77515;PMS5003;66627;29.424;-98.496;2023-01-10T00:34:51;13;10;
77515;PMS5003;66627;29.424;-98.496;2023-01-10T00:37:16;13;12;
77515;PMS5003;66627;29.424;-98.496;2023-01-10T00:39:42;11;11;
77515;PMS5003;66627;29.424;-98.496;2023-01-10T00:42:08;12;10;
77515;PMS5003;66627;29.424;-98.496;2023-01-10T00:44:32;12;12;
77515;PMS5003;66627;29.424;-98.496;2023-01-10T00:46:57;14;14;
77515;PMS5003;66627;29.424;-98.496;2023-01-10T00:49:23;15;15;
77515;PMS5003;66627;29.424;-98.496;2023-01-10T00:51:48;16;16;
77515;PMS5003;66627;29.424;-98.496;2023-01-10T00:54:13;15;15;
77515;PMS5003;66627;29.424;-98.496;2023-01-10T00:56:38;14;14;
77515;PMS5003;66627;29.424;-98.496;2023-01-10T00:59:04;18;18;
77515;PMS5003;66627;29.424;-98.496;2023-01-10T01:01:29;19;18;
77515;PMS5003;66627;29.424;-98.496;2023-01-10T01:03:55;17;16;
77515;PMS5003;66627;29.424;-98.496;2023-01-10T01:06:20;17;15;
77515;PMS5003;66627;29.424;-98.496;2023-01-10T01:08:45;12;12;
77515;PMS5003;66627;29.424;-98.496;2023-01-10T01:11:11;14;14;
77515;PMS5003;66627;29.424;-98.496;2023-01-10T01:13:37;18;17;
77515;PMS5003;66627;29.424;-98.496;2023-01-10T01:16:03;22;19;
77515;PMS5003;66627;29.424;-98.496;2023-01-10T01:18:28;17;17;
77515;PMS5003;66627;29.424;-98.496;2023-01-10T01:20:54;20;20;
77515;PMS5003;66627;29.424;-98.496;2023-01-10T01:23:19;19;17;
77515;PMS5003;66627;29.424;-98.496;2023-01-10T01:25:48;19;19;
77515;PMS5003;66627;29.424;-98.496;2023-01-10T01:28:11;15;13;
77515;PMS5003;66627;29.424;-98.496;2023-01-10T01:30:36;15;15;
77515;PMS5003;66627;29.424;-98.496;2023-01-10T01:33:01;17;17;
77515;PMS5003;66627;29.424;-98.496;2023-01-10T01:35:27;16;15;
77515;PMS5003;66627;29.424;-98.496;2023-01-10T01:37:52;20;20;
77515;PMS5003;66627;29.424;-98.496;2023-01-10T01:40:18;24;24;
77515;PMS5003;66627;29.424;-98.496;2023-01-10T01:42:43;23;23;
77515;PMS5003;66627;29.424;-98.496;2023-01-10T01:47:35;25;22;
77515;PMS5003;66627;29.424;-98.496;2023-01-10T01:49:59;25;21;
77515;PMS5003;66627;29.424;-98.496;2023-01-10T01:52:25;24;19;
77515;PMS5003;66627;29.424;-98.496;2023-01-10T01:54:49;24;20;
77515;PMS5003;66627;29.424;-98.496;2023-01-10T01:57:15;24;22;
77515;PMS5003;66627;29.424;-98.496;2023-01-10T01:59:41;22;19;
77515;PMS5003;66627;29.424;-98.496;2023-01-10T02:02:06;18;18;
77515;PMS5003;66627;29.424;-98.496;2023-01-10T02:04:34;21;20;
77515;PMS5003;66627;29.424;-98.496;2023-01-10T02:06:56;22;22;
77515;PMS5003;66627;29.424;-98.496;2023-01-10T02:09:23;25;22;
77515;PMS5003;66627;29.424;-98.496;2023-01-10T02:11:48;23;21;
77515;PMS5003;66627;29.424;-98.496;2023-01-10T02:14:13;24;22;
77515;PMS5003;66627;29.424;-98.496;2023-01-10T02:16:38;23;23;
77515;PMS5003;66627;29.424;-98.496;2023-01-10T02:19:06;21;21;
77515;PMS5003;66627;29.424;-98.496;2023-01-10T02:21:34;22;18;
77515;PMS5003;66627;29.424;-98.496;2023-01-10T02:24:00;23;23;
77515;PMS5003;66627;29.424;-98.496;2023-01-10T02:31:17;28;27;
77515;PMS5003;66627;29.424;-98.496;2023-01-10T02:33:37;30;26;
77515;PMS5003;66627;29.424;-98.496;2023-01-10T02:36:06;25;23;
77515;PMS5003;66627;29.424;-98.496;2023-01-10T02:38:34;21;20;
77515;PMS5003;66627;29.424;-98.496;2023-01-10T02:40:54;24;21;
77515;PMS5003;66627;29.424;-98.496;2023-01-10T02:43:19;24;24;
77515;PMS5003;66627;29.424;-98.496;2023-01-10T02:45:45;21;21;
77515;PMS5003;66627;29.424;-98.496;2023-01-10T02:48:09;26;26;
77515;PMS5003;66627;29.424;-98.496;2023-01-10T02:50:41;35;31;
77515;PMS5003;66627;29.424;-98.496;2023-01-10T02:53:01;24;24;
77515;PMS5003;66627;29.424;-98.496;2023-01-10T02:55:29;24;23;
77515;PMS5003;66627;29.424;-98.496;2023-01-10T02:57:52;27;26;
77515;PMS5003;66627;29.424;-98.496;2023-01-10T03:00:24;27;27;
77515;PMS5003;66627;29.424;-98.496;2023-01-10T03:02:44;27;26;
77515;PMS5003;66627;29.424;-98.496;2023-01-10T03:05:09;24;22;
77515;PMS5003;66627;29.424;-98.496;2023-01-10T03:07:34;22;22;
77515;PMS5003;66627;29.424;-98.496;2023-01-10T03:10:00;27;26;
77515;PMS5003;66627;29.424;-98.496;2023-01-10T03:12:25;21;21;
77515;PMS5003;66627;29.424;-98.496;2023-01-10T03:14:49;24;23;
77515;PMS5003;66627;29.424;-98.496;2023-01-10T03:17:15;28;27;
77515;PMS5003;66627;29.424;-98.496;2023-01-10T03:19:41;25;24;
77515;PMS5003;66627;29.424;-98.496;2023-01-10T03:22:06;27;25;
77515;PMS5003;66627;29.424;-98.496;2023-01-10T03:24:33;25;24;
77515;PMS5003;66627;29.424;-98.496;2023-01-10T03:26:57;23;22;
77515;PMS5003;66627;29.424;-98.496;2023-01-10T03:29:24;24;21;
77515;PMS5003;66627;29.424;-98.496;2023-01-10T03:31:49;20;19;
77515;PMS5003;66627;29.424;-98.496;2023-01-10T03:34:13;26;25;
77515;PMS5003;66627;29.424;-98.496;2023-01-10T03:36:40;23;21;
77515;PMS5003;66627;29.424;-98.496;2023-01-10T03:39:05;24;21;
77515;PMS5003;66627;29.424;-98.496;2023-01-10T03:41:33;20;20;
77515;PMS5003;66627;29.424;-98.496;2023-01-10T03:43:57;22;21;
77515;PMS5003;66627;29.424;-98.496;2023-01-10T03:46:22;22;21;
77515;PMS5003;66627;29.424;-98.496;2023-01-10T03:48:47;23;23;
77515;PMS5003;66627;29.424;-98.496;2023-01-10T03:51:12;22;19;
77515;PMS5003;66627;29.424;-98.496;2023-01-10T03:53:38;19;19;
77515;PMS5003;66627;29.424;-98.496;2023-01-10T03:56:04;22;22;
77515;PMS5003;66627;29.424;-98.496;2023-01-10T03:58:31;21;19;
77515;PMS5003;66627;29.424;-98.496;2023-01-10T04:00:55;22;20;
77515;PMS5003;66627;29.424;-98.496;2023-01-10T04:03:20;22;21;
77515;PMS5003;66627;29.424;-98.496;2023-01-10T04:05:46;22;22;
77515;PMS5003;66627;29.424;-98.496;2023-01-10T04:08:12;20;20;
77515;PMS5003;66627;29.424;-98.496;2023-01-10T04:10:37;22;22;
77515;PMS5003;66627;29.424;-98.496;2023-01-10T04:13:02;24;24;
77515;PMS5003;66627;29.424;-98.496;2023-01-10T04:15:27;19;18;
77515;PMS5003;66627;29.424;-98.496;2023-01-10T04:17:52;29;25;
77515;PMS5003;66627;29.424;-98.496;2023-01-10T04:20:18;25;23;
77515;PMS5003;66627;29.424;-98.496;2023-01-10T04:22:43;26;25;
77515;PMS5003;66627;29.424;-98.496;2023-01-10T04:25:09;28;28;
77515;PMS5003;66627;29.424;-98.496;2023-01-10T04:27:35;31;29;
77515;PMS5003;66627;29.424;-98.496;2023-01-10T04:30:01;32;28;
77515;PMS5003;66627;29.424;-98.496;2023-01-10T04:32:26;25;24;
77515;PMS5003;66627;29.424;-98.496;2023-01-10T04:34:51;31;28;
77515;PMS5003;66627;29.424;-98.496;2023-01-10T04:37:17;29;28;
77515;PMS5003;66627;29.424;-98.496;2023-01-10T04:39:43;30;28;
77515;PMS5003;66627;29.424;-98.496;2023-01-10T04:42:08;27;27;
77515;PMS5003;66627;29.424;-98.496;2023-01-10T04:44:34;30;26;
77515;PMS5003;66627;29.424;-98.496;2023-01-10T04:46:59;28;27;
77515;PMS5003;66627;29.424;-98.496;2023-01-10T04:49:25;31;29;
77515;PMS5003;66627;29.424;-98.496;2023-01-10T04:51:50;27;27;
77515;PMS5003;66627;29.424;-98.496;2023-01-10T04:54:19;30;28;
77515;PMS5003;66627;29.424;-98.496;2023-01-10T04:56:41;27;25;
77515;PMS5003;66627;29.424;-98.496;2023-01-10T04:59:08;31;29;
77515;PMS5003;66627;29.424;-98.496;2023-01-10T05:01:33;25;24;
77515;PMS5003;66627;29.424;-98.496;2023-01-10T05:03:59;22;22;
77515;PMS5003;66627;29.424;-98.496;2023-01-10T05:06:24;32;30;
77515;PMS5003;66627;29.424;-98.496;2023-01-10T05:08:49;23;21;
77515;PMS5003;66627;29.424;-98.496;2023-01-10T05:11:15;27;26;
77515;PMS5003;66627;29.424;-98.496;2023-01-10T05:13:41;26;25;
77515;PMS5003;66627;29.424;-98.496;2023-01-10T05:16:06;31;27;
77515;PMS5003;66627;29.424;-98.496;2023-01-10T05:18:32;36;31;
77515;PMS5003;66627;29.424;-98.496;2023-01-10T05:20:59;26;24;
77515;PMS5003;66627;29.424;-98.496;2023-01-10T05:23:22;25;25;
77515;PMS5003;66627;29.424;-98.496;2023-01-10T05:25:48;26;23;
77515;PMS5003;66627;29.424;-98.496;2023-01-10T05:28:14;30;28;
77515;PMS5003;66627;29.424;-98.496;2023-01-10T05:30:40;31;28;
77515;PMS5003;66627;29.424;-98.496;2023-01-10T05:33:05;27;26;
77515;PMS5003;66627;29.424;-98.496;2023-01-10T05:35:30;29;24;
77515;PMS5003;66627;29.424;-98.496;2023-01-10T05:37:55;29;26;
77515;PMS5003;66627;29.424;-98.496;2023-01-10T05:40:20;27;24;
77515;PMS5003;66627;29.424;-98.496;2023-01-10T05:42:46;29;26;
77515;PMS5003;66627;29.424;-98.496;2023-01-10T05:45:12;24;24;
77515;PMS5003;66627;29.424;-98.496;2023-01-10T05:47:37;36;26;
77515;PMS5003;66627;29.424;-98.496;2023-01-10T05:50:03;33;31;
77515;PMS5003;66627;29.424;-98.496;2023-01-10T05:52:28;28;25;
77515;PMS5003;66627;29.424;-98.496;2023-01-10T05:54:53;26;25;
77515;PMS5003;66627;29.424;-98.496;2023-01-10T05:57:19;24;20;
77515;PMS5003;66627;29.424;-98.496;2023-01-10T05:59:44;22;22;
77515;PMS5003;66627;29.424;-98.496;2023-01-10T06:02:10;28;25;
77515;PMS5003;66627;29.424;-98.496;2023-01-10T06:04:35;34;30;
77515;PMS5003;66627;29.424;-98.496;2023-01-10T06:07:00;29;28;
77515;PMS5003;66627;29.424;-98.496;2023-01-10T06:09:26;31;29;
77515;PMS5003;66627;29.424;-98.496;2023-01-10T06:11:51;32;26;
77515;PMS5003;66627;29.424;-98.496;2023-01-10T06:14:16;34;28;
77515;PMS5003;66627;29.424;-98.496;2023-01-10T06:16:41;39;35;
77515;PMS5003;66627;29.424;-98.496;2023-01-10T06:19:07;43;41;
77515;PMS5003;66627;29.424;-98.496;2023-01-10T06:21:32;39;32;
77515;PMS5003;66627;29.424;-98.496;2023-01-10T06:23:57;39;32;
77515;PMS5003;66627;29.424;-98.496;2023-01-10T06:26:22;30;26;
77515;PMS5003;66627;29.424;-98.496;2023-01-10T06:28:48;33;30;
77515;PMS5003;66627;29.424;-98.496;2023-01-10T06:31:13;34;31;
77515;PMS5003;66627;29.424;-98.496;2023-01-10T06:33:39;32;29;
77515;PMS5003;66627;29.424;-98.496;2023-01-10T06:36:04;32;30;
77515;PMS5003;66627;29.424;-98.496;2023-01-10T06:38:30;31;27;
77515;PMS5003;66627;29.424;-98.496;2023-01-10T06:40:55;27;26;
77515;PMS5003;66627;29.424;-98.496;2023-01-10T06:43:20;24;23;
77515;PMS5003;66627;29.424;-98.496;2023-01-10T06:45:46;28;25;
77515;PMS5003;66627;29.424;-98.496;2023-01-10T06:48:11;30;30;
77515;PMS5003;66627;29.424;-98.496;2023-01-10T06:50:36;39;33;
77515;PMS5003;66627;29.424;-98.496;2023-01-10T06:53:02;31;28;
77515;PMS5003;66627;29.424;-98.496;2023-01-10T06:55:27;28;26;
77515;PMS5003;66627;29.424;-98.496;2023-01-10T06:57:55;33;30;
77515;PMS5003;66627;29.424;-98.496;2023-01-10T07:00:17;27;25;
77515;PMS5003;66627;29.424;-98.496;2023-01-10T07:02:42;33;29;
77515;PMS5003;66627;29.424;-98.496;2023-01-10T07:05:08;32;27;
77515;PMS5003;66627;29.424;-98.496;2023-01-10T07:07:34;33;29;
77515;PMS5003;66627;29.424;-98.496;2023-01-10T07:09:59;29;26;
77515;PMS5003;66627;29.424;-98.496;2023-01-10T07:12:24;32;30;
77515;PMS5003;66627;29.424;-98.496;2023-01-10T07:14:50;30;28;
77515;PMS5003;66627;29.424;-98.496;2023-01-10T07:17:15;25;25;
77515;PMS5003;66627;29.424;-98.496;2023-01-10T07:19:40;26;26;
77515;PMS5003;66627;29.424;-98.496;2023-01-10T07:22:06;29;28;
77515;PMS5003;66627;29.424;-98.496;2023-01-10T07:24:31;38;36;
77515;PMS5003;66627;29.424;-98.496;2023-01-10T07:26:56;27;26;
77515;PMS5003;66627;29.424;-98.496;2023-01-10T07:29:22;40;38;
77515;PMS5003;66627;29.424;-98.496;2023-01-10T07:31:48;32;31;
77515;PMS5003;66627;29.424;-98.496;2023-01-10T07:34:13;33;29;
77515;PMS5003;66627;29.424;-98.496;2023-01-10T07:36:38;36;31;
77515;PMS5003;66627;29.424;-98.496;2023-01-10T07:39:05;30;29;
77515;PMS5003;66627;29.424;-98.496;2023-01-10T07:41:29;27;25;
77515;PMS5003;66627;29.424;-98.496;2023-01-10T07:43:55;28;25;
77515;PMS5003;66627;29.424;-98.496;2023-01-10T07:46:20;29;27;
77515;PMS5003;66627;29.424;-98.496;2023-01-10T07:48:47;34;30;
77515;PMS5003;66627;29.424;-98.496;2023-01-10T07:51:12;30;28;
77515;PMS5003;66627;29.424;-98.496;2023-01-10T07:53:37;31;28;
77515;PMS5003;66627;29.424;-98.496;2023-01-10T07:56:03;31;27;
77515;PMS5003;66627;29.424;-98.496;2023-01-10T07:58:28;33;29;
77515;PMS5003;66627;29.424;-98.496;2023-01-10T08:00:56;31;29;
77515;PMS5003;66627;29.424;-98.496;2023-01-10T08:03:19;29;28;
77515;PMS5003;66627;29.424;-98.496;2023-01-10T08:05:44;36;29;
77515;PMS5003;66627;29.424;-98.496;2023-01-10T08:08:10;36;33;
77515;PMS5003;66627;29.424;-98.496;2023-01-10T08:10:36;38;35;
77515;PMS5003;66627;29.424;-98.496;2023-01-10T08:13:01;35;31;
77515;PMS5003;66627;29.424;-98.496;2023-01-10T08:15:27;38;31;
77515;PMS5003;66627;29.424;-98.496;2023-01-10T08:17:53;31;31;
77515;PMS5003;66627;29.424;-98.496;2023-01-10T08:20:18;35;30;
77515;PMS5003;66627;29.424;-98.496;2023-01-10T08:22:43;31;30;
77515;PMS5003;66627;29.424;-98.496;2023-01-10T08:25:09;36;34;
77515;PMS5003;66627;29.424;-98.496;2023-01-10T08:27:35;30;25;
77515;PMS5003;66627;29.424;-98.496;2023-01-10T08:30:00;31;25;
77515;PMS5003;66627;29.424;-98.496;2023-01-10T08:32:25;33;26;
77515;PMS5003;66627;29.424;-98.496;2023-01-10T08:34:51;31;29;
77515;PMS5003;66627;29.424;-98.496;2023-01-10T08:37:16;31;27;
77515;PMS5003;66627;29.424;-98.496;2023-01-10T08:39:42;37;34;
77515;PMS5003;66627;29.424;-98.496;2023-01-10T08:42:07;35;33;
77515;PMS5003;66627;29.424;-98.496;2023-01-10T08:44:32;37;34;
77515;PMS5003;66627;29.424;-98.496;2023-01-10T08:46:58;33;31;
77515;PMS5003;66627;29.424;-98.496;2023-01-10T08:49:23;27;23;
77515;PMS5003;66627;29.424;-98.496;2023-01-10T08:51:48;19;19;
77515;PMS5003;66627;29.424;-98.496;2023-01-10T08:54:13;19;17;
77515;PMS5003;66627;29.424;-98.496;2023-01-10T08:56:39;24;21;
77515;PMS5003;66627;29.424;-98.496;2023-01-10T08:59:04;33;27;
77515;PMS5003;66627;29.424;-98.496;2023-01-10T09:01:30;27;25;
77515;PMS5003;66627;29.424;-98.496;2023-01-10T09:03:55;28;25;
77515;PMS5003;66627;29.424;-98.496;2023-01-10T09:06:20;31;26;
77515;PMS5003;66627;29.424;-98.496;2023-01-10T09:08:45;40;32;
77515;PMS5003;66627;29.424;-98.496;2023-01-10T09:11:11;26;25;
77515;PMS5003;66627;29.424;-98.496;2023-01-10T09:13:37;34;27;
77515;PMS5003;66627;29.424;-98.496;2023-01-10T09:16:02;32;26;
77515;PMS5003;66627;29.424;-98.496;2023-01-10T09:18:27;26;22;
77515;PMS5003;66627;29.424;-98.496;2023-01-10T09:20:53;27;23;
77515;PMS5003;66627;29.424;-98.496;2023-01-10T09:23:19;28;26;
77515;PMS5003;66627;29.424;-98.496;2023-01-10T09:25:44;28;23;
77515;PMS5003;66627;29.424;-98.496;2023-01-10T09:28:10;21;18;
77515;PMS5003;66627;29.424;-98.496;2023-01-10T09:30:35;24;24;
77515;PMS5003;66627;29.424;-98.496;2023-01-10T09:33:00;26;24;
77515;PMS5003;66627;29.424;-98.496;2023-01-10T09:35:26;25;25;
77515;PMS5003;66627;29.424;-98.496;2023-01-10T09:37:52;24;20;
77515;PMS5003;66627;29.424;-98.496;2023-01-10T09:40:18;23;22;
77515;PMS5003;66627;29.424;-98.496;2023-01-10T09:42:46;26;20;
77515;PMS5003;66627;29.424;-98.496;2023-01-10T09:45:10;20;17;
77515;PMS5003;66627;29.424;-98.496;2023-01-10T09:47:35;21;20;
77515;PMS5003;66627;29.424;-98.496;2023-01-10T09:50:01;34;28;
77515;PMS5003;66627;29.424;-98.496;2023-01-10T09:52:27;23;20;
77515;PMS5003;66627;29.424;-98.496;2023-01-10T09:54:50;20;19;
77515;PMS5003;66627;29.424;-98.496;2023-01-10T09:57:15;23;22;
77515;PMS5003;66627;29.424;-98.496;2023-01-10T09:59:40;19;18;
77515;PMS5003;66627;29.424;-98.496;2023-01-10T10:04:32;17;17;
77515;PMS5003;66627;29.424;-98.496;2023-01-10T10:06:56;19;17;
77515;PMS5003;66627;29.424;-98.496;2023-01-10T10:09:24;16;15;
77515;PMS5003;66627;29.424;-98.496;2023-01-10T10:11:52;22;20;
77515;PMS5003;66627;29.424;-98.496;2023-01-10T10:14:16;25;20;
77515;PMS5003;66627;29.424;-98.496;2023-01-10T10:16:40;19;18;
77515;PMS5003;66627;29.424;-98.496;2023-01-10T10:19:04;22;21;
77515;PMS5003;66627;29.424;-98.496;2023-01-10T10:21:31;18;18;
77515;PMS5003;66627;29.424;-98.496;2023-01-10T10:23:59;27;24;
77515;PMS5003;66627;29.424;-98.496;2023-01-10T10:26:21;21;18;
77515;PMS5003;66627;29.424;-98.496;2023-01-10T10:31:12;16;16;
77515;PMS5003;66627;29.424;-98.496;2023-01-10T10:33:40;20;19;
77515;PMS5003;66627;29.424;-98.496;2023-01-10T10:36:03;20;19;
77515;PMS5003;66627;29.424;-98.496;2023-01-10T10:38:29;25;22;
77515;PMS5003;66627;29.424;-98.496;2023-01-10T10:40:53;24;21;
77515;PMS5003;66627;29.424;-98.496;2023-01-10T10:43:18;24;23;
77515;PMS5003;66627;29.424;-98.496;2023-01-10T10:45:44;24;22;
77515;PMS5003;66627;29.424;-98.496;2023-01-10T10:48:11;26;26;
77515;PMS5003;66627;29.424;-98.496;2023-01-10T10:50:33;26;23;
77515;PMS5003;66627;29.424;-98.496;2023-01-10T10:52:59;22;21;
77515;PMS5003;66627;29.424;-98.496;2023-01-10T10:55:26;22;19;
77515;PMS5003;66627;29.424;-98.496;2023-01-10T10:57:49;19;18;
77515;PMS5003;66627;29.424;-98.496;2023-01-10T11:00:15;24;21;
77515;PMS5003;66627;29.424;-98.496;2023-01-10T11:02:42;20;19;
77515;PMS5003;66627;29.424;-98.496;2023-01-10T11:05:07;20;19;
77515;PMS5003;66627;29.424;-98.496;2023-01-10T11:07:32;23;20;
77515;PMS5003;66627;29.424;-98.496;2023-01-10T11:09:56;30;26;
77515;PMS5003;66627;29.424;-98.496;2023-01-10T11:12:23;25;24;
77515;PMS5003;66627;29.424;-98.496;2023-01-10T11:14:48;27;23;
77515;PMS5003;66627;29.424;-98.496;2023-01-10T11:17:19;28;26;
77515;PMS5003;66627;29.424;-98.496;2023-01-10T11:19:38;26;26;
77515;PMS5003;66627;29.424;-98.496;2023-01-10T11:22:04;23;22;
77515;PMS5003;66627;29.424;-98.496;2023-01-10T11:24:29;27;23;
77515;PMS5003;66627;29.424;-98.496;2023-01-10T11:26:54;26;23;
77515;PMS5003;66627;29.424;-98.496;2023-01-10T11:29:20;21;21;
77515;PMS5003;66627;29.424;-98.496;2023-01-10T11:31:45;26;22;
77515;PMS5003;66627;29.424;-98.496;2023-01-10T11:39:03;28;24;
77515;PMS5003;66627;29.424;-98.496;2023-01-10T11:41:28;26;26;
77515;PMS5003;66627;29.424;-98.496;2023-01-10T11:43:53;26;22;
77515;PMS5003;66627;29.424;-98.496;2023-01-10T11:46:19;22;22;
77515;PMS5003;66627;29.424;-98.496;2023-01-10T11:48:44;23;20;
77515;PMS5003;66627;29.424;-98.496;2023-01-10T11:53:37;25;23;
77515;PMS5003;66627;29.424;-98.496;2023-01-10T11:56:00;25;23;
77515;PMS5003;66627;29.424;-98.496;2023-01-10T11:58:28;25;23;
77515;PMS5003;66627;29.424;-98.496;2023-01-10T12:00:51;23;21;
77515;PMS5003;66627;29.424;-98.496;2023-01-10T12:03:17;25;23;
77515;PMS5003;66627;29.424;-98.496;2023-01-10T12:08:10;21;20;
77515;PMS5003;66627;29.424;-98.496;2023-01-10T12:10:34;29;25;
77515;PMS5003;66627;29.424;-98.496;2023-01-10T12:13:06;30;27;
77515;PMS5003;66627;29.424;-98.496;2023-01-10T12:15:25;26;25;
77515;PMS5003;66627;29.424;-98.496;2023-01-10T12:17:51;25;24;
77515;PMS5003;66627;29.424;-98.496;2023-01-10T12:20:16;28;26;
77515;PMS5003;66627;29.424;-98.496;2023-01-10T12:22:42;27;25;
77515;PMS5003;66627;29.424;-98.496;2023-01-10T12:25:13;28;26;
77515;PMS5003;66627;29.424;-98.496;2023-01-10T12:27:32;25;23;
77515;PMS5003;66627;29.424;-98.496;2023-01-10T12:30:00;30;28;
77515;PMS5003;66627;29.424;-98.496;2023-01-10T12:32:24;29;27;
77515;PMS5003;66627;29.424;-98.496;2023-01-10T12:34:50;28;26;
77515;PMS5003;66627;29.424;-98.496;2023-01-10T12:37:15;29;24;
77515;PMS5003;66627;29.424;-98.496;2023-01-10T12:39:39;33;28;
77515;PMS5003;66627;29.424;-98.496;2023-01-10T12:44:33;32;30;
77515;PMS5003;66627;29.424;-98.496;2023-01-10T12:46:57;32;29;
77515;PMS5003;66627;29.424;-98.496;2023-01-10T12:49:22;24;24;
77515;PMS5003;66627;29.424;-98.496;2023-01-10T12:51:47;28;27;
77515;PMS5003;66627;29.424;-98.496;2023-01-10T12:54:14;26;23;
77515;PMS5003;66627;29.424;-98.496;2023-01-10T12:56:38;33;28;
77515;PMS5003;66627;29.424;-98.496;2023-01-10T12:59:04;30;28;
77515;PMS5003;66627;29.424;-98.496;2023-01-10T13:01:30;32;25;
77515;PMS5003;66627;29.424;-98.496;2023-01-10T13:03:55;32;31;
77515;PMS5003;66627;29.424;-98.496;2023-01-10T13:06:29;32;28;
77515;PMS5003;66627;29.424;-98.496;2023-01-10T13:08:46;33;29;
77515;PMS5003;66627;29.424;-98.496;2023-01-10T13:11:11;34;30;
77515;PMS5003;66627;29.424;-98.496;2023-01-10T13:13:38;31;31;
77515;PMS5003;66627;29.424;-98.496;2023-01-10T13:16:08;30;25;
77515;PMS5003;66627;29.424;-98.496;2023-01-10T13:18:28;29;27;
77515;PMS5003;66627;29.424;-98.496;2023-01-10T13:23:25;27;26;
77515;PMS5003;66627;29.424;-98.496;2023-01-10T13:28:13;36;33;
77515;PMS5003;66627;29.424;-98.496;2023-01-10T13:30:34;34;31;
77515;PMS5003;66627;29.424;-98.496;2023-01-10T13:33:01;36;34;
77515;PMS5003;66627;29.424;-98.496;2023-01-10T13:35:25;36;36;
77515;PMS5003;66627;29.424;-98.496;2023-01-10T13:37:52;33;27;
77515;PMS5003;66627;29.424;-98.496;2023-01-10T13:40:18;35;34;
77515;PMS5003;66627;29.424;-98.496;2023-01-10T13:42:41;42;39;
77515;PMS5003;66627;29.424;-98.496;2023-01-10T13:45:14;36;31;
77515;PMS5003;66627;29.424;-98.496;2023-01-10T13:49:58;38;35;
77515;PMS5003;66627;29.424;-98.496;2023-01-10T14:02:10;37;34;
77515;PMS5003;66627;29.424;-98.496;2023-01-10T14:04:32;39;35;
77515;PMS5003;66627;29.424;-98.496;2023-01-10T14:06:57;31;29;
77515;PMS5003;66627;29.424;-98.496;2023-01-10T14:11:49;39;37;
77515;PMS5003;66627;29.424;-98.496;2023-01-10T14:14:17;35;30;
77515;PMS5003;66627;29.424;-98.496;2023-01-10T14:16:39;33;32;
77515;PMS5003;66627;29.424;-98.496;2023-01-10T14:19:05;34;33;
77515;PMS5003;66627;29.424;-98.496;2023-01-10T14:21:30;36;32;
77515;PMS5003;66627;29.424;-98.496;2023-01-10T14:23:55;34;33;
77515;PMS5003;66627;29.424;-98.496;2023-01-10T14:26:22;29;26;
77515;PMS5003;66627;29.424;-98.496;2023-01-10T14:28:45;35;31;
77515;PMS5003;66627;29.424;-98.496;2023-01-10T14:31:12;33;30;
77515;PMS5003;66627;29.424;-98.496;2023-01-10T14:33:36;35;33;
77515;PMS5003;66627;29.424;-98.496;2023-01-10T14:36:03;31;28;
77515;PMS5003;66627;29.424;-98.496;2023-01-10T14:38:27;34;30;
77515;PMS5003;66627;29.424;-98.496;2023-01-10T14:40:54;32;31;
77515;PMS5003;66627;29.424;-98.496;2023-01-10T14:43:18;33;31;
77515;PMS5003;66627;29.424;-98.496;2023-01-10T14:45:45;35;31;
77515;PMS5003;66627;29.424;-98.496;2023-01-10T14:50:33;30;29;
77515;PMS5003;66627;29.424;-98.496;2023-01-10T14:52:59;29;27;
77515;PMS5003;66627;29.424;-98.496;2023-01-10T14:55:24;31;31;
77515;PMS5003;66627;29.424;-98.496;2023-01-10T14:57:54;33;30;
77515;PMS5003;66627;29.424;-98.496;2023-01-10T15:00:15;29;28;
77515;PMS5003;66627;29.424;-98.496;2023-01-10T15:02:42;28;26;
77515;PMS5003;66627;29.424;-98.496;2023-01-10T15:05:07;31;29;
77515;PMS5003;66627;29.424;-98.496;2023-01-10T15:07:32;24;24;
77515;PMS5003;66627;29.424;-98.496;2023-01-10T15:09:57;30;29;
77515;PMS5003;66627;29.424;-98.496;2023-01-10T15:12:23;27;26;
77515;PMS5003;66627;29.424;-98.496;2023-01-10T15:14:48;32;28;
77515;PMS5003;66627;29.424;-98.496;2023-01-10T15:17:15;23;21;
77515;PMS5003;66627;29.424;-98.496;2023-01-10T15:19:39;27;23;
77515;PMS5003;66627;29.424;-98.496;2023-01-10T15:24:31;23;20;
77515;PMS5003;66627;29.424;-98.496;2023-01-10T15:26:56;21;20;
77515;PMS5003;66627;29.424;-98.496;2023-01-10T15:29:21;22;19;
77515;PMS5003;66627;29.424;-98.496;2023-01-10T15:31:46;26;22;
77515;PMS5003;66627;29.424;-98.496;2023-01-10T15:34:13;22;19;
77515;PMS5003;66627;29.424;-98.496;2023-01-10T15:36:39;21;21;
77515;PMS5003;66627;29.424;-98.496;2023-01-10T15:39:02;22;21;
77515;PMS5003;66627;29.424;-98.496;2023-01-10T15:41:28;24;20;
77515;PMS5003;66627;29.424;-98.496;2023-01-10T15:43:53;21;21;
77515;PMS5003;66627;29.424;-98.496;2023-01-10T15:46:20;21;20;
77515;PMS5003;66627;29.424;-98.496;2023-01-10T15:51:11;21;20;
77515;PMS5003;66627;29.424;-98.496;2023-01-10T15:58:27;20;17;
77515;PMS5003;66627;29.424;-98.496;2023-01-10T16:00:54;17;16;
77515;PMS5003;66627;29.424;-98.496;2023-01-10T16:03:20;14;13;
77515;PMS5003;66627;29.424;-98.496;2023-01-10T16:05:48;16;14;
77515;PMS5003;66627;29.424;-98.496;2023-01-10T16:08:09;16;15;
77515;PMS5003;66627;29.424;-98.496;2023-01-10T16:10:34;13;13;
77515;PMS5003;66627;29.424;-98.496;2023-01-10T16:15:25;16;15;
77515;PMS5003;66627;29.424;-98.496;2023-01-10T16:17:51;12;11;
77515;PMS5003;66627;29.424;-98.496;2023-01-10T16:20:16;12;11;
77515;PMS5003;66627;29.424;-98.496;2023-01-10T16:22:41;18;18;
77515;PMS5003;66627;29.424;-98.496;2023-01-10T16:25:12;14;12;
77515;PMS5003;66627;29.424;-98.496;2023-01-10T16:27:32;13;13;
77515;PMS5003;66627;29.424;-98.496;2023-01-10T16:29:58;14;12;
77515;PMS5003;66627;29.424;-98.496;2023-01-10T16:32:24;14;12;
77515;PMS5003;66627;29.424;-98.496;2023-01-10T16:34:49;12;12;